Time;durP1;ratioP1;P1;durP2;ratioP2;P2;SDS_P1;SDS_P2;PMS_P1;PMS_P2;Temp;Humidity;BMP_temperature;BMP_pressure;BME280_temperature;BME280_humidity;BME280_pressure;Samples;Min_cycle;Max_cycle;Signal;HPM_P1;HPM_P2
2021/10/28 00:12:26;;;;;;;7.85;4.60;;;;;;;;;;5082516;28;20078;-72
2021/10/28 00:14:56;;;;;;;8.88;5.05;;;;;;;;;;5081430;28;20166;-73
2021/10/28 00:20:08;;;;;;;6.55;3.70;;;;;;;;;;5081960;28;20058;-75
2021/10/28 00:22:35;;;;;;;3.58;2.83;;;;;;;;;;5081895;28;20052;-73
2021/10/28 00:25:01;;;;;;;4.63;2.50;;;;;;;;;;5081422;28;20107;-73
2021/10/28 00:27:27;;;;;;;2.83;2.10;;;;;;;;;;5081515;28;20387;-74
2021/10/28 00:29:53;;;;;;;5.65;2.17;;;;;;;;;;5078925;28;20542;-74
2021/10/28 00:32:19;;;;;;;2.40;2.20;;;;;;;;;;5078397;28;20017;-73
2021/10/28 00:34:45;;;;;;;2.15;1.67;;;;;;;;;;5079899;28;20057;-76
2021/10/28 00:37:12;;;;;;;1.58;1.48;;;;;;;;;;5081044;28;20024;-75
2021/10/28 00:39:39;;;;;;;2.30;1.85;;;;;;;;;;5080869;28;20025;-72
2021/10/28 00:42:05;;;;;;;3.42;2.30;;;;;;;;;;5081053;28;20025;-75
2021/10/28 00:44:32;;;;;;;3.42;1.75;;;;;;;;;;5081601;28;20394;-77
2021/10/28 00:46:58;;;;;;;2.83;1.70;;;;;;;;;;5080330;28;20395;-72
2021/10/28 00:49:24;;;;;;;5.28;1.70;;;;;;;;;;5080751;28;20051;-75
2021/10/28 00:51:50;;;;;;;2.75;1.90;;;;;;;;;;5078041;28;20013;-76
2021/10/28 00:54:23;;;;;;;2.00;1.85;;;;;;;;;;5076706;28;20070;-77
2021/10/28 00:56:50;;;;;;;4.95;1.50;;;;;;;;;;5076528;28;20020;-74
2021/10/28 00:59:16;;;;;;;2.95;1.50;;;;;;;;;;5076815;28;20033;-75
2021/10/28 01:01:42;;;;;;;4.70;2.08;;;;;;;;;;5078006;28;20020;-76
2021/10/28 01:04:09;;;;;;;1.58;1.40;;;;;;;;;;5080492;28;20020;-75
2021/10/28 01:06:37;;;;;;;2.08;1.73;;;;;;;;;;5077065;28;20699;-76
2021/10/28 01:09:03;;;;;;;1.60;1.27;;;;;;;;;;5075339;28;20394;-76
2021/10/28 01:11:30;;;;;;;4.00;1.63;;;;;;;;;;5077931;28;20016;-77
2021/10/28 01:13:56;;;;;;;2.22;1.38;;;;;;;;;;5076673;28;20028;-75
2021/10/28 01:16:23;;;;;;;2.33;1.40;;;;;;;;;;5076109;28;20033;-75
2021/10/28 01:18:49;;;;;;;1.48;1.30;;;;;;;;;;5076920;28;20024;-76
2021/10/28 01:21:15;;;;;;;3.05;1.48;;;;;;;;;;5077789;28;20035;-71
2021/10/28 01:23:41;;;;;;;1.92;1.25;;;;;;;;;;5079755;28;20112;-75
2021/10/28 01:26:11;;;;;;;2.83;1.30;;;;;;;;;;5080526;28;20111;-74
2021/10/28 01:28:39;;;;;;;1.45;1.10;;;;;;;;;;5080546;28;20025;-76
2021/10/28 01:31:06;;;;;;;3.67;1.45;;;;;;;;;;5079275;28;20024;-74
2021/10/28 01:33:32;;;;;;;1.65;1.25;;;;;;;;;;5078828;28;20481;-76
2021/10/28 01:35:58;;;;;;;1.25;1.10;;;;;;;;;;5080428;28;20491;-77
2021/10/28 01:38:25;;;;;;;1.35;1.25;;;;;;;;;;5079470;28;20082;-75
2021/10/28 01:40:59;;;;;;;1.50;1.10;;;;;;;;;;5077201;28;20471;-77
2021/10/28 01:43:26;;;;;;;1.42;1.27;;;;;;;;;;5078659;28;20021;-74
2021/10/28 01:45:52;;;;;;;1.85;1.45;;;;;;;;;;5079916;28;20394;-73
2021/10/28 01:48:18;;;;;;;1.52;1.02;;;;;;;;;;5077996;28;20039;-78
2021/10/28 01:50:44;;;;;;;1.30;1.20;;;;;;;;;;5076570;28;20035;-75
2021/10/28 01:53:11;;;;;;;1.73;1.50;;;;;;;;;;5079459;28;20024;-74
2021/10/28 01:55:37;;;;;;;1.63;1.38;;;;;;;;;;5079747;28;20068;-74
2021/10/28 01:58:03;;;;;;;1.45;1.30;;;;;;;;;;5079934;28;20040;-72
2021/10/28 02:00:30;;;;;;;1.40;1.30;;;;;;;;;;5079513;28;20025;-76
2021/10/28 02:02:56;;;;;;;7.18;2.22;;;;;;;;;;5079591;28;20021;-76
2021/10/28 02:05:23;;;;;;;2.42;1.25;;;;;;;;;;5078851;28;20036;-73
2021/10/28 02:07:50;;;;;;;2.50;1.42;;;;;;;;;;5079241;28;20021;-73
2021/10/28 02:10:17;;;;;;;2.38;1.50;;;;;;;;;;5078254;28;20024;-76
2021/10/28 02:12:45;;;;;;;2.75;1.60;;;;;;;;;;5079424;28;20023;-72
2021/10/28 02:15:15;;;;;;;1.48;1.38;;;;;;;;;;5078942;28;20508;-72
2021/10/28 02:17:42;;;;;;;1.40;1.30;;;;;;;;;;5078772;28;20104;-73
2021/10/28 02:20:09;;;;;;;1.58;1.48;;;;;;;;;;5078751;28;20031;-75
2021/10/28 02:22:35;;;;;;;1.90;1.40;;;;;;;;;;5079274;28;20039;-73
2021/10/28 02:25:02;;;;;;;1.63;1.52;;;;;;;;;;5078879;28;20540;-72
2021/10/28 02:27:28;;;;;;;2.15;1.70;;;;;;;;;;5078386;28;20161;-73
2021/10/28 02:29:54;;;;;;;1.77;1.67;;;;;;;;;;5080090;28;20038;-74
2021/10/28 02:32:20;;;;;;;2.30;1.80;;;;;;;;;;5080623;28;20108;-73
2021/10/28 02:34:46;;;;;;;1.60;1.50;;;;;;;;;;5080566;28;20085;-74
2021/10/28 02:37:12;;;;;;;3.90;1.70;;;;;;;;;;5080537;28;20017;-76
2021/10/28 02:39:39;;;;;;;1.50;1.40;;;;;;;;;;5079086;28;20478;-74
2021/10/28 02:42:05;;;;;;;1.83;1.67;;;;;;;;;;5078939;28;20447;-75
2021/10/28 02:44:31;;;;;;;3.13;1.75;;;;;;;;;;5078685;28;20029;-76
2021/10/28 02:46:57;;;;;;;3.45;1.90;;;;;;;;;;5078866;28;20052;-74
2021/10/28 02:49:25;;;;;;;2.38;1.92;;;;;;;;;;5077951;28;20052;-76
2021/10/28 02:51:51;;;;;;;2.33;1.70;;;;;;;;;;5078731;28;20038;-74
2021/10/28 02:54:19;;;;;;;2.83;1.63;;;;;;;;;;5078996;28;20097;-72
2021/10/28 02:56:45;;;;;;;1.90;1.77;;;;;;;;;;5078277;28;20029;-74
2021/10/28 02:59:11;;;;;;;2.00;1.80;;;;;;;;;;5078748;28;20028;-73
2021/10/28 03:01:42;;;;;;;3.03;2.53;;;;;;;;;;5078909;28;20031;-74
2021/10/28 03:04:09;;;;;;;1.95;1.58;;;;;;;;;;5079113;28;20029;-73
2021/10/28 03:06:38;;;;;;;3.58;1.67;;;;;;;;;;5078155;28;20024;-74
2021/10/28 03:09:04;;;;;;;2.38;1.65;;;;;;;;;;5079007;28;20029;-75
2021/10/28 03:11:31;;;;;;;1.85;1.63;;;;;;;;;;5077501;28;20025;-72
2021/10/28 03:13:57;;;;;;;3.08;1.90;;;;;;;;;;5078648;28;20032;-73
2021/10/28 03:27:09;;;;;;;3.33;1.73;;;;;;;;;;5078984;28;20120;-74
2021/10/28 03:29:35;;;;;;;1.90;1.80;;;;;;;;;;5076939;28;20070;-74
2021/10/28 03:32:01;;;;;;;4.40;2.00;;;;;;;;;;5078213;28;20031;-74
2021/10/28 03:34:27;;;;;;;5.22;1.90;;;;;;;;;;5078589;28;20024;-74
2021/10/28 03:37:07;;;;;;;2.63;1.92;;;;;;;;;;5078282;28;20017;-72
2021/10/28 04:30:13;;;;;;;3.15;1.60;;;;;;;;;;5081243;28;20043;-78
2021/10/28 04:32:40;;;;;;;2.75;1.63;;;;;;;;;;5081121;28;20069;-73
2021/10/28 04:35:07;;;;;;;4.75;1.73;;;;;;;;;;5080445;28;20020;-75
2021/10/28 04:37:33;;;;;;;4.07;2.22;;;;;;;;;;5079437;28;20043;-73
2021/10/28 04:39:59;;;;;;;2.58;1.63;;;;;;;;;;5080757;28;20035;-74
2021/10/28 04:42:25;;;;;;;2.72;1.90;;;;;;;;;;5080525;28;20437;-76
2021/10/28 04:44:51;;;;;;;4.63;2.42;;;;;;;;;;5079042;28;20096;-76
2021/10/28 04:47:18;;;;;;;2.58;1.52;;;;;;;;;;5080162;28;20029;-73
2021/10/28 04:49:44;;;;;;;2.80;1.73;;;;;;;;;;5079092;28;20047;-76
2021/10/28 04:52:10;;;;;;;3.05;2.03;;;;;;;;;;5080370;28;20088;-74
2021/10/28 04:54:36;;;;;;;5.30;1.80;;;;;;;;;;5080488;28;20118;-73
2021/10/28 04:57:02;;;;;;;3.35;1.77;;;;;;;;;;5079896;28;20396;-74
2021/10/28 04:59:28;;;;;;;3.25;1.70;;;;;;;;;;5079736;28;20408;-74
2021/10/28 05:01:55;;;;;;;2.22;1.90;;;;;;;;;;5080043;28;20034;-72
2021/10/28 05:04:21;;;;;;;3.22;1.80;;;;;;;;;;5078448;28;20398;-75
2021/10/28 05:06:47;;;;;;;6.65;2.00;;;;;;;;;;5079703;28;20021;-75
2021/10/28 05:09:16;;;;;;;3.92;1.88;;;;;;;;;;5080275;28;20108;-73
2021/10/28 05:11:45;;;;;;;2.45;1.73;;;;;;;;;;5080108;28;20051;-73
2021/10/28 05:14:11;;;;;;;3.28;1.70;;;;;;;;;;5080411;28;20020;-73
2021/10/28 05:16:37;;;;;;;3.15;1.70;;;;;;;;;;5080400;28;20028;-76
2021/10/28 05:19:04;;;;;;;3.33;1.80;;;;;;;;;;5080346;28;20470;-75
2021/10/28 05:21:31;;;;;;;3.05;1.85;;;;;;;;;;5079481;28;20025;-75
2021/10/28 05:23:57;;;;;;;2.10;1.60;;;;;;;;;;5079711;28;20124;-75
2021/10/28 05:26:23;;;;;;;3.38;1.83;;;;;;;;;;5079350;28;20544;-72
2021/10/28 05:28:50;;;;;;;3.17;1.70;;;;;;;;;;5079153;28;20033;-76
2021/10/28 05:31:17;;;;;;;2.80;1.50;;;;;;;;;;5079763;28;20028;-75
2021/10/28 05:33:43;;;;;;;3.13;2.08;;;;;;;;;;5078474;28;20024;-75
2021/10/28 05:36:09;;;;;;;8.25;1.95;;;;;;;;;;5077925;28;20028;-75
2021/10/28 05:38:35;;;;;;;6.32;2.00;;;;;;;;;;5076327;28;20504;-77
2021/10/28 05:41:01;;;;;;;4.97;2.17;;;;;;;;;;5075798;28;20052;-76
2021/10/28 05:43:27;;;;;;;7.50;1.95;;;;;;;;;;5073987;28;20048;-75
2021/10/28 05:45:53;;;;;;;2.17;1.67;;;;;;;;;;5075065;28;20032;-75
2021/10/28 05:48:20;;;;;;;4.70;1.90;;;;;;;;;;5075237;28;20403;-75
2021/10/28 05:50:47;;;;;;;5.50;2.70;;;;;;;;;;5075806;28;20095;-75
2021/10/28 05:53:13;;;;;;;3.15;1.80;;;;;;;;;;5075059;28;20027;-75
2021/10/28 05:55:39;;;;;;;1.60;1.50;;;;;;;;;;5077477;28;20116;-75
2021/10/28 05:58:06;;;;;;;2.22;1.90;;;;;;;;;;5077695;28;20017;-75
2021/10/28 06:00:32;;;;;;;1.92;1.60;;;;;;;;;;5078259;28;20032;-76
2021/10/28 06:02:58;;;;;;;2.35;2.13;;;;;;;;;;5078441;28;20039;-75
2021/10/28 06:05:25;;;;;;;1.95;1.70;;;;;;;;;;5078237;28;20024;-76
2021/10/28 06:07:51;;;;;;;2.00;1.80;;;;;;;;;;5078807;28;20044;-77
2021/10/28 06:10:19;;;;;;;3.03;2.45;;;;;;;;;;5078422;28;20024;-73
2021/10/28 06:12:48;;;;;;;3.03;2.10;;;;;;;;;;5078596;28;20025;-73
2021/10/28 06:15:14;;;;;;;4.50;2.50;;;;;;;;;;5077817;28;20016;-75
2021/10/28 06:18:41;;;;;;;5.43;2.95;;;;;;;;;;5078468;28;20025;-75
2021/10/28 06:20:36;;;;;;;;;;;;;;;;;;5073777;28;20035;-72
2021/10/28 06:23:02;;;;;;;4.50;2.50;;;;;;;;;;5078384;28;19943;-77
2021/10/28 06:25:28;;;;;;;3.97;2.95;;;;;;;;;;5077002;28;20387;-75
2021/10/28 06:27:54;;;;;;;3.47;2.50;;;;;;;;;;5077006;28;20395;-73
2021/10/28 06:30:20;;;;;;;3.80;2.70;;;;;;;;;;5078173;28;20075;-76
2021/10/28 06:33:00;;;;;;;5.18;2.40;;;;;;;;;;5078857;28;20024;-76
2021/10/28 06:35:27;;;;;;;3.38;1.98;;;;;;;;;;5078111;28;20021;-72
2021/10/28 06:37:53;;;;;;;3.55;2.25;;;;;;;;;;5078017;28;20017;-74
2021/10/28 06:40:21;;;;;;;4.72;2.25;;;;;;;;;;5078404;28;20025;-76
2021/10/28 06:42:47;;;;;;;3.95;1.95;;;;;;;;;;5076532;28;20031;-72
2021/10/28 06:45:13;;;;;;;2.10;1.90;;;;;;;;;;5078614;28;20036;-75
2021/10/28 06:47:40;;;;;;;3.78;2.03;;;;;;;;;;5078182;28;20048;-76
2021/10/28 06:50:11;;;;;;;5.18;2.28;;;;;;;;;;5078590;28;20044;-73
2021/10/28 06:53:06;;;;;;;2.55;1.80;;;;;;;;;;5078376;28;20044;-72
2021/10/28 06:55:51;;;;;;;5.82;2.10;;;;;;;;;;5078409;28;20032;-73
2021/10/28 07:03:30;;;;;;;3.75;2.33;;;;;;;;;;5078245;28;20035;-74
2021/10/28 07:06:01;;;;;;;2.70;2.05;;;;;;;;;;5078012;28;20482;-75
2021/10/28 07:08:27;;;;;;;3.38;2.15;;;;;;;;;;5077727;28;20021;-73
2021/10/28 07:10:55;;;;;;;5.05;2.40;;;;;;;;;;5077180;28;20036;-74
2021/10/28 07:13:28;;;;;;;3.92;2.63;;;;;;;;;;5077222;28;20109;-77
2021/10/28 07:15:59;;;;;;;4.05;2.50;;;;;;;;;;5075821;28;20028;-75
2021/10/28 07:55:00;;;;;;;4.47;2.92;;;;;;;;;;5075690;28;20082;-73
2021/10/28 08:15:23;;;;;;;3.13;2.42;;;;;;;;;;5074715;28;20085;-75
2021/10/28 08:23:09;;;;;;;6.60;3.30;;;;;;;;;;5074530;28;20028;-76
2021/10/28 08:31:06;;;;;;;6.97;3.70;;;;;;;;;;5078307;28;20044;-77
2021/10/28 08:33:33;;;;;;;9.60;3.80;;;;;;;;;;5078112;28;20391;-76
2021/10/28 08:36:09;;;;;;;3.97;2.90;;;;;;;;;;5077573;28;20017;-74
2021/10/28 08:38:36;;;;;;;5.05;3.20;;;;;;;;;;5078709;28;20063;-75
2021/10/28 08:41:04;;;;;;;7.07;3.45;;;;;;;;;;5079320;28;20044;-72
2021/10/28 08:43:31;;;;;;;8.27;4.45;;;;;;;;;;5077908;28;20028;-74
2021/10/28 08:46:00;;;;;;;7.43;4.93;;;;;;;;;;5077600;28;20036;-75
2021/10/28 08:48:28;;;;;;;6.82;4.13;;;;;;;;;;5076974;28;20189;-76
2021/10/28 08:51:08;;;;;;;5.93;3.20;;;;;;;;;;5077052;28;20032;-75
2021/10/28 08:56:03;;;;;;;4.85;2.90;;;;;;;;;;5077115;28;20383;-78
2021/10/28 09:24:09;;;;;;;6.63;3.78;;;;;;;;;;5076359;28;20089;-76
2021/10/28 09:32:31;;;;;;;7.15;3.10;;;;;;;;;;5076518;28;20403;-75
2021/10/28 09:35:34;;;;;;;6.40;4.03;;;;;;;;;;5075558;28;20029;-76
2021/10/28 09:51:46;;;;;;;2.30;1.80;;;;;;;;;;5075592;28;20017;-74
2021/10/28 09:54:20;;;;;;;5.22;2.53;;;;;;;;;;5075776;28;20122;-74
2021/10/28 09:59:34;;;;;;;2.63;1.98;;;;;;;;;;5076139;28;20059;-77
2021/10/28 10:04:33;;;;;;;7.32;3.08;;;;;;;;;;5075332;28;20025;-76
2021/10/28 10:07:00;;;;;;;8.02;2.90;;;;;;;;;;5075323;28;20025;-75
2021/10/28 10:09:26;;;;;;;5.78;3.22;;;;;;;;;;5075216;28;20475;-76
2021/10/28 10:11:53;;;;;;;5.53;2.40;;;;;;;;;;5076211;28;20088;-76
2021/10/28 10:14:21;;;;;;;3.58;2.20;;;;;;;;;;5075709;28;20025;-74
2021/10/28 10:16:48;;;;;;;2.42;1.80;;;;;;;;;;5077045;28;20419;-76
2021/10/28 10:19:16;;;;;;;2.25;1.80;;;;;;;;;;5076411;28;20032;-75
2021/10/28 10:21:43;;;;;;;6.93;4.70;;;;;;;;;;5075640;28;20055;-76
2021/10/28 11:23:15;;;;;;;6.05;4.35;;;;;;;;;;5078864;28;20037;-76
2021/10/28 11:28:47;;;;;;;3.17;2.55;;;;;;;;;;5078363;28;20490;-74
2021/10/28 12:44:18;;;;;;;1.90;1.70;;;;;;;;;;5081852;28;20509;-75
2021/10/28 13:58:41;;;;;;;2.33;2.13;;;;;;;;;;5076866;28;20414;-73
2021/10/28 14:23:11;;;;;;;4.53;1.90;;;;;;;;;;5079690;28;20092;-76
2021/10/28 14:59:05;;;;;;;3.35;1.90;;;;;;;;;;5080707;28;20027;-75
2021/10/28 15:29:28;;;;;;;4.43;2.60;;;;;;;;;;5080876;28;20040;-75
2021/10/28 15:34:52;;;;;;;5.35;2.60;;;;;;;;;;5083540;28;20078;-76
2021/10/28 15:40:17;;;;;;;3.75;2.40;;;;;;;;;;5083119;28;20390;-75
2021/10/28 15:43:08;;;;;;;3.35;2.53;;;;;;;;;;5084164;28;20020;-77
2021/10/28 16:23:25;;;;;;;5.28;2.88;;;;;;;;;;5070133;28;20074;-72
2021/10/28 16:25:51;;;;;;;21.00;10.90;;;;;;;;;;5069343;28;20036;-72
2021/10/28 16:28:17;;;;;;;9.90;3.50;;;;;;;;;;5066441;28;20036;-73
2021/10/28 16:30:47;;;;;;;7.45;3.72;;;;;;;;;;5063471;28;20032;-75
2021/10/28 16:33:13;;;;;;;6.47;3.30;;;;;;;;;;5066266;28;20013;-73
2021/10/28 16:35:40;;;;;;;10.82;5.03;;;;;;;;;;5066872;28;20024;-72
2021/10/28 16:38:08;;;;;;;9.05;3.50;;;;;;;;;;5067654;28;20024;-73
2021/10/28 16:40:34;;;;;;;11.13;5.07;;;;;;;;;;5064039;28;20210;-75
2021/10/28 16:43:01;;;;;;;81.05;53.53;;;;;;;;;;5063747;28;20036;-76
2021/10/28 16:45:27;;;;;;;62.25;40.17;;;;;;;;;;5063242;28;20372;-75
2021/10/28 16:47:53;;;;;;;11.40;4.28;;;;;;;;;;5065024;28;20024;-75
2021/10/28 16:50:19;;;;;;;14.10;6.90;;;;;;;;;;5064319;28;20044;-76
2021/10/28 16:52:45;;;;;;;10.98;5.78;;;;;;;;;;5064138;28;20086;-74
2021/10/28 16:55:11;;;;;;;23.60;15.30;;;;;;;;;;5066071;28;20036;-75
2021/10/28 16:57:37;;;;;;;12.23;7.18;;;;;;;;;;5063651;28;20032;-73
2021/10/28 17:00:07;;;;;;;27.27;24.42;;;;;;;;;;5065297;28;20035;-72
2021/10/28 17:02:33;;;;;;;54.67;48.80;;;;;;;;;;5064935;28;20021;-73
2021/10/28 17:05:03;;;;;;;39.03;34.78;;;;;;;;;;5068066;28;20095;-75
2021/10/28 17:07:29;;;;;;;48.53;41.92;;;;;;;;;;5066108;28;20433;-74
2021/10/28 17:09:59;;;;;;;17.70;12.07;;;;;;;;;;5063849;28;20036;-76
2021/10/28 17:12:25;;;;;;;6.55;5.72;;;;;;;;;;5064644;28;20100;-73
2021/10/28 17:14:52;;;;;;;7.53;6.45;;;;;;;;;;5065392;28;20031;-74
2021/10/28 17:17:20;;;;;;;13.18;8.25;;;;;;;;;;5064860;28;20025;-74
2021/10/28 17:19:47;;;;;;;16.67;12.43;;;;;;;;;;5063241;28;20040;-75
2021/10/28 17:22:13;;;;;;;17.00;15.07;;;;;;;;;;5062327;28;20138;-73
2021/10/28 17:24:46;;;;;;;16.65;14.95;;;;;;;;;;5074510;28;20035;-75
2021/10/28 17:27:12;;;;;;;18.58;15.77;;;;;;;;;;5077921;28;20047;-75
2021/10/28 17:29:39;;;;;;;11.65;10.40;;;;;;;;;;5082123;28;20033;-74
2021/10/28 17:32:15;;;;;;;6.45;4.55;;;;;;;;;;5081480;28;20360;-74
2021/10/28 17:34:41;;;;;;;6.38;5.78;;;;;;;;;;5063747;28;20353;-75
2021/10/28 17:37:10;;;;;;;3.15;2.25;;;;;;;;;;5064720;28;20021;-75
2021/10/28 17:39:36;;;;;;;4.00;2.60;;;;;;;;;;5064038;28;20028;-74
2021/10/28 17:42:03;;;;;;;4.18;3.78;;;;;;;;;;5062800;28;20025;-74
2021/10/28 17:44:38;;;;;;;4.60;3.40;;;;;;;;;;5077479;28;20479;-74
2021/10/28 17:47:05;;;;;;;3.72;2.92;;;;;;;;;;5083211;28;20020;-76
2021/10/28 17:49:31;;;;;;;5.03;4.53;;;;;;;;;;5075574;28;20072;-73
2021/10/28 17:51:58;;;;;;;8.15;6.03;;;;;;;;;;5061673;28;20100;-74
2021/10/28 17:54:25;;;;;;;4.70;3.33;;;;;;;;;;5061640;28;20021;-75
2021/10/28 17:56:51;;;;;;;4.18;3.78;;;;;;;;;;5061935;28;20107;-75
2021/10/28 17:59:18;;;;;;;5.53;3.67;;;;;;;;;;5063035;28;20157;-73
2021/10/28 18:01:44;;;;;;;4.07;3.28;;;;;;;;;;5063359;28;20468;-75
2021/10/28 18:04:11;;;;;;;4.88;3.58;;;;;;;;;;5060958;28;20111;-74
2021/10/28 18:06:37;;;;;;;4.18;2.83;;;;;;;;;;5071021;28;20050;-74
2021/10/28 18:09:05;;;;;;;5.90;4.38;;;;;;;;;;5083002;28;20027;-76
2021/10/28 18:11:37;;;;;;;9.77;5.05;;;;;;;;;;5083045;28;20046;-74
2021/10/28 18:14:10;;;;;;;9.45;7.28;;;;;;;;;;5083434;28;20025;-76
2021/10/28 18:16:36;;;;;;;12.23;9.43;;;;;;;;;;5082990;28;20017;-75
2021/10/28 18:19:04;;;;;;;21.50;15.85;;;;;;;;;;5082284;28;20012;-75
2021/10/28 18:21:37;;;;;;;13.07;10.13;;;;;;;;;;5082330;28;20383;-74
2021/10/28 18:24:04;;;;;;;17.65;11.10;;;;;;;;;;5069772;28;20112;-75
2021/10/28 18:26:31;;;;;;;16.67;10.90;;;;;;;;;;5061324;28;20035;-75
2021/10/28 18:28:57;;;;;;;32.50;19.92;;;;;;;;;;5061714;28;20037;-73
2021/10/28 18:31:25;;;;;;;28.50;18.88;;;;;;;;;;5061274;28;20029;-75
2021/10/28 18:33:59;;;;;;;17.58;15.55;;;;;;;;;;5069600;28;20020;-75
2021/10/28 18:36:26;;;;;;;9.55;7.68;;;;;;;;;;5053611;28;20104;-73
2021/10/28 18:38:52;;;;;;;11.60;10.40;;;;;;;;;;5059680;28;20104;-74
2021/10/28 18:41:25;;;;;;;7.63;6.65;;;;;;;;;;5061110;28;20056;-76
2021/10/28 18:43:52;;;;;;;8.45;6.50;;;;;;;;;;5060925;28;20539;-74
2021/10/28 18:46:21;;;;;;;4.55;3.80;;;;;;;;;;5061231;28;20056;-73
2021/10/28 18:48:47;;;;;;;4.60;4.13;;;;;;;;;;5078653;28;20123;-72
2021/10/28 18:51:14;;;;;;;9.93;8.55;;;;;;;;;;5082163;28;20029;-73
2021/10/28 18:53:50;;;;;;;9.30;8.02;;;;;;;;;;5080606;28;20024;-75
2021/10/28 18:56:17;;;;;;;11.10;9.65;;;;;;;;;;5081424;28;20021;-75
2021/10/28 18:58:44;;;;;;;11.52;10.43;;;;;;;;;;5081227;28;20028;-77
2021/10/28 19:01:11;;;;;;;10.65;9.43;;;;;;;;;;5081421;28;20051;-74
2021/10/28 19:03:41;;;;;;;7.65;6.53;;;;;;;;;;5081060;28;20031;-73
2021/10/28 19:06:12;;;;;;;8.30;7.47;;;;;;;;;;5083176;28;20028;-73
2021/10/28 19:08:39;;;;;;;8.10;5.63;;;;;;;;;;5080439;28;20055;-75
2021/10/28 19:11:05;;;;;;;6.55;5.38;;;;;;;;;;5082802;28;20077;-74
2021/10/28 19:13:33;;;;;;;5.70;3.92;;;;;;;;;;5081358;28;20013;-73
2021/10/28 19:16:02;;;;;;;4.60;3.97;;;;;;;;;;5081355;28;20403;-75
2021/10/28 19:18:38;;;;;;;6.07;5.10;;;;;;;;;;5082726;28;20538;-74
2021/10/28 19:21:04;;;;;;;6.90;5.13;;;;;;;;;;5081368;28;20032;-75
2021/10/28 19:23:30;;;;;;;9.27;4.85;;;;;;;;;;5082070;28;20048;-74
2021/10/28 19:25:56;;;;;;;6.60;4.28;;;;;;;;;;5079874;28;20084;-74
2021/10/28 19:28:25;;;;;;;6.88;4.80;;;;;;;;;;5081300;28;20059;-74
2021/10/28 19:31:05;;;;;;;6.78;5.30;;;;;;;;;;5081187;28;20036;-74
2021/10/28 19:36:47;;;;;;;9.40;6.85;;;;;;;;;;5081238;28;20078;-76
2021/10/28 19:42:05;;;;;;;13.80;6.50;;;;;;;;;;5070732;28;20029;-75
2021/10/28 19:47:16;;;;;;;7.68;5.63;;;;;;;;;;5061216;28;20059;-72
2021/10/28 19:49:43;;;;;;;7.03;4.95;;;;;;;;;;5060626;28;20045;-75
2021/10/28 19:52:12;;;;;;;14.05;9.60;;;;;;;;;;5060627;28;20044;-75
2021/10/28 19:54:39;;;;;;;238.32;166.45;;;;;;;;;;5061414;28;20021;-74
2021/10/28 19:57:10;;;;;;;179.63;122.55;;;;;;;;;;5060824;28;20021;-73
2021/10/28 19:59:39;;;;;;;437.92;288.48;;;;;;;;;;5060626;28;20018;-73
2021/10/28 20:08:01;;;;;;;7.38;5.10;;;;;;;;;;5081801;28;20108;-76
2021/10/28 20:21:35;;;;;;;5.77;4.60;;;;;;;;;;5073437;28;20044;-73
2021/10/28 20:24:02;;;;;;;8.10;6.32;;;;;;;;;;5081768;28;20335;-74
2021/10/28 20:26:28;;;;;;;4.63;3.97;;;;;;;;;;5085895;28;20076;-75
2021/10/28 20:29:06;;;;;;;6.20;3.45;;;;;;;;;;5075753;28;20029;-74
2021/10/28 20:31:32;;;;;;;5.15;3.63;;;;;;;;;;5064608;28;20021;-76
2021/10/28 20:34:14;;;;;;;3.70;2.97;;;;;;;;;;5064148;28;20025;-74
2021/10/28 20:39:25;;;;;;;7.57;3.55;;;;;;;;;;5070532;28;20086;-75
2021/10/28 20:41:51;;;;;;;5.15;3.20;;;;;;;;;;5083990;28;20082;-74
2021/10/28 20:44:20;;;;;;;6.40;3.85;;;;;;;;;;5083473;28;20024;-75
2021/10/28 20:46:53;;;;;;;7.95;5.18;;;;;;;;;;5074307;28;20025;-76
2021/10/28 20:49:19;;;;;;;8.07;5.43;;;;;;;;;;5062813;28;20056;-73
2021/10/28 20:51:45;;;;;;;13.48;6.82;;;;;;;;;;5063781;28;20033;-74
2021/10/28 20:54:11;;;;;;;47.42;19.05;;;;;;;;;;5063160;28;20035;-72
2021/10/28 20:56:40;;;;;;;71.32;29.10;;;;;;;;;;5063260;28;20079;-74
2021/10/28 20:59:07;;;;;;;105.07;43.13;;;;;;;;;;5080493;28;20020;-74
2021/10/28 21:01:34;;;;;;;21.10;10.77;;;;;;;;;;5075216;28;20021;-74
2021/10/28 21:04:00;;;;;;;9.07;7.63;;;;;;;;;;5066188;28;20036;-74
2021/10/28 21:06:35;;;;;;;13.98;9.55;;;;;;;;;;5063246;28;20025;-74
2021/10/28 21:09:01;;;;;;;16.05;14.45;;;;;;;;;;5063277;28;20021;-77
2021/10/28 21:11:27;;;;;;;8.60;7.80;;;;;;;;;;5063084;28;20494;-74
2021/10/28 21:13:54;;;;;;;6.50;5.35;;;;;;;;;;5063023;28;20021;-75
2021/10/28 21:16:20;;;;;;;6.97;5.38;;;;;;;;;;5062900;28;20023;-77
2021/10/28 21:18:55;;;;;;;8.93;6.03;;;;;;;;;;5065453;28;20047;-75
2021/10/28 21:24:07;;;;;;;8.18;7.03;;;;;;;;;;5063782;28;19949;-76
2021/10/28 21:26:34;;;;;;;9.20;6.05;;;;;;;;;;5063383;28;20399;-75
2021/10/28 21:29:04;;;;;;;8.98;7.00;;;;;;;;;;5066210;28;20032;-77
2021/10/28 21:31:31;;;;;;;11.93;8.48;;;;;;;;;;5065563;28;20029;-77
2021/10/28 21:33:57;;;;;;;10.65;8.55;;;;;;;;;;5062699;28;20057;-74
2021/10/28 21:36:23;;;;;;;12.75;9.30;;;;;;;;;;5063033;28;20055;-76
2021/10/28 21:39:28;;;;;;;8.00;6.75;;;;;;;;;;5063623;28;20025;-76
2021/10/28 21:41:48;;;;;;;7.07;4.30;;;;;;;;;;5075869;28;20048;-74
2021/10/28 21:44:17;;;;;;;7.10;4.50;;;;;;;;;;5062583;28;20029;-76
2021/10/28 21:46:44;;;;;;;7.38;5.15;;;;;;;;;;5076305;28;20024;-75
2021/10/28 21:49:10;;;;;;;6.30;4.97;;;;;;;;;;5083407;28;20048;-76
2021/10/28 21:51:36;;;;;;;7.35;5.18;;;;;;;;;;5082581;28;20071;-74
2021/10/28 21:54:06;;;;;;;6.80;4.57;;;;;;;;;;5082620;28;20024;-76
2021/10/28 21:56:37;;;;;;;5.93;4.00;;;;;;;;;;5082308;28;20024;-75
2021/10/28 22:01:58;;;;;;;6.85;3.95;;;;;;;;;;5085343;28;20031;-75
2021/10/28 22:26:05;;;;;;;5.45;3.83;;;;;;;;;;5082580;28;20066;-74
2021/10/28 22:28:31;;;;;;;9.27;4.55;;;;;;;;;;5083206;28;20170;-76
2021/10/28 22:31:07;;;;;;;9.10;4.47;;;;;;;;;;5087867;28;20020;-75
2021/10/28 22:33:33;;;;;;;4.65;3.60;;;;;;;;;;5086460;28;20036;-75
2021/10/28 22:36:08;;;;;;;4.82;4.22;;;;;;;;;;5083004;28;20028;-73
2021/10/28 22:38:48;;;;;;;3.93;3.27;;;;;;;;;;5083454;28;20040;-76
2021/10/28 22:41:14;;;;;;;5.63;4.22;;;;;;;;;;5081978;28;20035;-75
2021/10/28 22:43:40;;;;;;;6.55;4.13;;;;;;;;;;5080418;28;20051;-75
2021/10/28 22:46:07;;;;;;;7.55;5.22;;;;;;;;;;5083774;28;20020;-75
2021/10/28 22:48:36;;;;;;;8.23;5.07;;;;;;;;;;5083598;28;20021;-74
2021/10/28 22:51:02;;;;;;;8.25;4.40;;;;;;;;;;5082376;28;20031;-73
2021/10/28 22:53:29;;;;;;;7.60;5.15;;;;;;;;;;5082309;28;20023;-73
2021/10/28 22:55:59;;;;;;;8.18;5.25;;;;;;;;;;5079917;28;20020;-73
2021/10/28 22:58:31;;;;;;;7.55;5.85;;;;;;;;;;5081864;28;20483;-73
2021/10/28 23:01:12;;;;;;;8.50;6.05;;;;;;;;;;5084841;28;20035;-73
2021/10/28 23:06:56;;;;;;;10.25;5.88;;;;;;;;;;5081352;28;20039;-74
2021/10/28 23:23:03;;;;;;;13.07;6.43;;;;;;;;;;5086345;28;20108;-76
2021/10/28 23:25:29;;;;;;;6.70;5.65;;;;;;;;;;5082040;28;20025;-74
2021/10/28 23:27:55;;;;;;;8.57;5.63;;;;;;;;;;5080868;28;20028;-73
2021/10/28 23:30:21;;;;;;;7.35;5.53;;;;;;;;;;5083521;28;20024;-75
2021/10/28 23:32:48;;;;;;;9.15;6.22;;;;;;;;;;5081706;28;20023;-74
2021/10/28 23:35:14;;;;;;;8.13;6.22;;;;;;;;;;5082212;28;20079;-73
2021/10/28 23:37:40;;;;;;;8.32;6.00;;;;;;;;;;5082538;28;20455;-74
2021/10/28 23:40:07;;;;;;;9.80;6.65;;;;;;;;;;5084165;28;20086;-78
2021/10/28 23:42:33;;;;;;;10.05;6.80;;;;;;;;;;5080703;28;20546;-73
2021/10/28 23:44:59;;;;;;;10.85;7.07;;;;;;;;;;5081372;28;20025;-75
2021/10/28 23:47:26;;;;;;;11.70;6.97;;;;;;;;;;5081734;28;20042;-76
2021/10/28 23:49:58;;;;;;;11.32;6.88;;;;;;;;;;5079723;28;20044;-75
2021/10/28 23:52:24;;;;;;;13.93;9.02;;;;;;;;;;5080485;28;20070;-73
2021/10/28 23:54:50;;;;;;;11.30;9.75;;;;;;;;;;5081105;28;20035;-76
2021/10/28 23:57:19;;;;;;;11.13;9.43;;;;;;;;;;5084977;28;20020;-76
2021/10/28 23:59:45;;;;;;;11.35;9.18;;;;;;;;;;5086681;28;20033;-76
